Time;durP1;ratioP1;P1;durP2;ratioP2;P2;SDS_P1;SDS_P2;PMS_P1;PMS_P2;Temp;Humidity;BMP_temperature;BMP_pressure;BME280_temperature;BME280_humidity;BME280_pressure;Samples;Min_cycle;Max_cycle;Signal;HPM_P1;HPM_P2
2022/07/07 00:02:01;;;;;;;1.40;0.78;;;;;;;27.82;32.13;99561.59;1857353;76;30074;-47
2022/07/07 00:04:51;;;;;;;0.80;0.80;;;;;;;27.80;32.19;99548.58;1839704;77;28074;-45
2022/07/07 00:07:39;;;;;;;0.50;0.50;;;;;;;27.85;32.18;99565.17;1860855;76;28150;-47
2022/07/07 00:10:28;;;;;;;0.70;0.70;;;;;;;27.93;32.08;99561.92;1861268;76;28195;-44
2022/07/07 00:13:16;;;;;;;0.72;0.72;;;;;;;27.96;31.95;99553.91;1854772;76;28195;-46
2022/07/07 00:16:06;;;;;;;0.80;0.80;;;;;;;27.97;31.98;99569.39;1850056;76;28030;-45
2022/07/07 00:18:55;;;;;;;0.70;0.70;;;;;;;28.03;31.92;99560.60;1845192;76;28138;-45
2022/07/07 00:21:43;;;;;;;0.70;0.70;;;;;;;27.97;31.89;99539.56;1859948;76;28635;-44
2022/07/07 00:24:32;;;;;;;0.80;0.80;;;;;;;27.99;31.84;99553.42;1856140;76;28208;-44
2022/07/07 00:27:21;;;;;;;0.62;0.62;;;;;;;28.05;31.85;99560.62;1870193;76;28045;-45
2022/07/07 00:30:10;;;;;;;0.80;0.80;;;;;;;28.09;31.77;99570.59;1850293;76;28179;-48
2022/07/07 00:32:58;;;;;;;0.70;0.70;;;;;;;28.09;31.72;99540.21;1851991;76;28061;-45
2022/07/07 00:35:47;;;;;;;0.75;0.75;;;;;;;28.14;31.67;99554.05;1853465;76;28071;-48
2022/07/07 00:38:36;;;;;;;0.80;0.70;;;;;;;28.15;31.58;99546.02;1850239;76;28134;-47
2022/07/07 00:41:24;;;;;;;1.85;0.90;;;;;;;28.18;31.62;99542.73;1849974;76;28227;-48
2022/07/07 00:44:14;;;;;;;0.70;0.70;;;;;;;28.15;31.62;99539.66;1853164;76;28198;-46
2022/07/07 00:47:05;;;;;;;0.80;0.80;;;;;;;28.17;31.66;99546.58;1852418;76;28083;-46
2022/07/07 00:49:55;;;;;;;0.50;0.50;;;;;;;28.23;31.61;99541.38;1842455;74;28114;-48
2022/07/07 00:52:43;;;;;;;0.80;0.80;;;;;;;28.24;31.64;99538.06;1839776;77;28200;-45
2022/07/07 00:55:32;;;;;;;0.70;0.70;;;;;;;28.27;31.68;99552.16;1857317;76;28083;-45
2022/07/07 00:58:20;;;;;;;0.70;0.70;;;;;;;28.31;31.63;99545.55;1851509;76;28052;-46
2022/07/07 01:01:09;;;;;;;0.80;0.80;;;;;;;28.34;31.61;99545.83;1850097;76;28048;-48
2022/07/07 01:03:59;;;;;;;0.70;0.70;;;;;;;28.36;31.60;99544.16;1870473;76;28051;-46
2022/07/07 01:06:48;;;;;;;1.20;0.70;;;;;;;28.35;31.58;99553.02;1839571;77;28133;-46
2022/07/07 01:09:38;;;;;;;1.02;0.80;;;;;;;28.39;31.59;99554.14;1850857;76;28126;-45
2022/07/07 01:12:29;;;;;;;0.80;0.65;;;;;;;28.42;31.58;99559.13;1850170;76;28000;-45
2022/07/07 01:15:17;;;;;;;1.17;0.83;;;;;;;28.42;31.60;99553.60;1849918;76;28149;-46
2022/07/07 01:18:06;;;;;;;1.20;0.77;;;;;;;28.43;31.54;99555.25;1854273;76;28086;-46
2022/07/07 01:20:55;;;;;;;1.20;0.85;;;;;;;28.46;31.54;99546.42;1850098;76;28056;-47
2022/07/07 01:23:44;;;;;;;0.80;0.80;;;;;;;28.46;31.58;99547.80;1849171;76;28150;-47
2022/07/07 01:26:33;;;;;;;0.70;0.70;;;;;;;28.48;31.48;99553.88;1850397;76;28113;-49
2022/07/07 01:29:21;;;;;;;0.70;0.70;;;;;;;28.49;31.43;99555.56;1839112;77;28099;-49
2022/07/07 01:32:10;;;;;;;0.70;0.70;;;;;;;28.50;31.40;99551.67;1869400;76;28103;-45
2022/07/07 01:34:58;;;;;;;0.60;0.60;;;;;;;28.51;31.44;99552.52;1849781;76;28183;-44
2022/07/07 01:37:47;;;;;;;0.70;0.70;;;;;;;28.54;31.42;99546.45;1852289;76;28077;-46
2022/07/07 01:40:37;;;;;;;0.80;0.80;;;;;;;28.53;31.20;99555.28;1852624;76;28138;-48
2022/07/07 01:43:25;;;;;;;0.60;0.60;;;;;;;28.52;31.30;99550.04;1849180;76;28028;-47
2022/07/07 01:46:13;;;;;;;0.72;0.72;;;;;;;28.51;31.24;99554.73;1849718;76;28204;-47
2022/07/07 01:49:01;;;;;;;0.75;0.70;;;;;;;28.53;31.21;99548.92;1853403;76;28129;-45
2022/07/07 01:51:50;;;;;;;0.80;0.80;;;;;;;28.53;31.10;99542.02;1850656;76;28053;-46
2022/07/07 01:54:39;;;;;;;0.62;0.62;;;;;;;28.54;31.14;99545.06;1843588;76;28140;-46
2022/07/07 01:57:27;;;;;;;0.70;0.70;;;;;;;28.54;31.14;99550.02;1860847;76;28529;-47
2022/07/07 02:00:16;;;;;;;0.70;0.70;;;;;;;28.57;31.09;99558.31;1870565;76;28065;-49
2022/07/07 02:03:05;;;;;;;1.00;0.78;;;;;;;28.54;31.19;99559.69;1849808;76;28129;-49
2022/07/07 02:05:53;;;;;;;0.85;0.85;;;;;;;28.53;31.11;99551.14;1849698;76;28016;-46
2022/07/07 02:08:42;;;;;;;0.70;0.70;;;;;;;28.53;31.13;99547.54;1850806;76;28090;-45
2022/07/07 02:11:31;;;;;;;0.70;0.70;;;;;;;28.55;31.14;99554.45;1853638;76;27996;-47
2022/07/07 02:14:19;;;;;;;0.60;0.60;;;;;;;28.49;31.18;99552.80;1849871;76;37167;-47
2022/07/07 02:17:08;;;;;;;0.60;0.60;;;;;;;28.53;31.11;99559.43;1849669;76;28093;-45
2022/07/07 02:19:56;;;;;;;0.80;0.80;;;;;;;28.52;31.16;99559.71;1871073;76;28013;-47
2022/07/07 02:22:44;;;;;;;0.70;0.70;;;;;;;28.54;31.00;99557.50;1852010;76;28095;-45
2022/07/07 02:25:33;;;;;;;1.10;0.98;;;;;;;28.54;31.01;99564.41;1849813;76;28118;-47
2022/07/07 02:28:23;;;;;;;1.00;0.78;;;;;;;28.50;31.10;99561.34;1849945;76;28166;-45
2022/07/07 02:31:13;;;;;;;0.80;0.70;;;;;;;28.52;31.02;99567.43;1871160;76;28134;-45
2022/07/07 02:34:01;;;;;;;0.73;0.73;;;;;;;28.53;31.04;99564.12;1851165;76;28091;-47
2022/07/07 02:36:49;;;;;;;0.70;0.70;;;;;;;28.53;31.05;99567.72;1849767;76;27995;-48
2022/07/07 02:39:38;;;;;;;0.70;0.70;;;;;;;28.52;31.08;99559.14;1850427;76;28074;-45
2022/07/07 02:42:26;;;;;;;0.60;0.60;;;;;;;28.52;31.03;99560.52;1855083;76;28008;-46
2022/07/07 02:45:14;;;;;;;1.00;0.70;;;;;;;28.51;31.00;99567.71;1861469;76;28070;-47
2022/07/07 02:48:03;;;;;;;0.87;0.87;;;;;;;28.51;30.90;99568.55;1860585;76;28089;-47
2022/07/07 02:50:52;;;;;;;0.70;0.70;;;;;;;28.51;30.85;99568.55;1859096;76;28017;-45
2022/07/07 02:53:40;;;;;;;0.80;0.80;;;;;;;28.55;30.73;99570.20;1853295;76;28058;-44
2022/07/07 02:56:29;;;;;;;0.53;0.53;;;;;;;28.51;30.84;99570.48;1842206;76;28219;-48
2022/07/07 02:59:17;;;;;;;0.68;0.68;;;;;;;28.48;30.84;99575.16;1860853;76;27999;-46
2022/07/07 03:02:06;;;;;;;0.70;0.70;;;;;;;28.47;30.76;99582.61;1856839;76;27997;-44
2022/07/07 03:04:54;;;;;;;2.50;0.70;;;;;;;28.50;30.55;99583.45;1839863;77;28070;-46
2022/07/07 03:07:43;;;;;;;0.70;0.70;;;;;;;28.49;30.57;99585.95;1860754;76;28174;-45
2022/07/07 03:10:31;;;;;;;0.70;0.70;;;;;;;28.51;30.45;99583.75;1840410;76;28163;-47
2022/07/07 03:13:20;;;;;;;0.80;0.80;;;;;;;28.51;30.46;99587.06;1854482;76;28175;-46
2022/07/07 03:16:08;;;;;;;1.70;0.70;;;;;;;28.49;30.42;99588.72;1839825;77;28110;-47
2022/07/07 03:18:57;;;;;;;0.70;0.70;;;;;;;28.49;30.43;99583.73;1865453;74;28132;-47
2022/07/07 03:21:45;;;;;;;0.62;0.62;;;;;;;28.51;30.36;99600.33;1851171;76;28111;-48
2022/07/07 03:24:33;;;;;;;0.80;0.80;;;;;;;28.51;30.26;99596.73;1839620;77;28117;-48
2022/07/07 03:27:21;;;;;;;0.70;0.70;;;;;;;28.52;30.37;99600.59;1860621;76;28078;-44
2022/07/07 03:30:11;;;;;;;1.43;0.77;;;;;;;28.48;30.31;99603.63;1840061;76;28168;-44
2022/07/07 03:32:59;;;;;;;0.80;0.65;;;;;;;28.48;30.22;99604.17;1859136;76;28131;-44
2022/07/07 03:35:48;;;;;;;0.70;0.70;;;;;;;28.50;30.21;99593.67;1853376;76;28142;-48
2022/07/07 03:38:37;;;;;;;1.00;0.80;;;;;;;28.45;30.26;99612.45;1849841;76;28080;-49
2022/07/07 03:41:26;;;;;;;0.80;0.80;;;;;;;28.47;30.20;99601.95;1850210;76;28142;-49
2022/07/07 03:44:14;;;;;;;0.75;0.60;;;;;;;28.46;30.27;99603.07;1852586;76;28129;-46
2022/07/07 03:47:03;;;;;;;0.83;0.80;;;;;;;28.46;30.21;99602.23;1852958;76;28072;-44
2022/07/07 03:49:52;;;;;;;0.70;0.70;;;;;;;28.45;30.23;99616.59;1850078;76;28078;-43
2022/07/07 03:52:41;;;;;;;0.85;0.85;;;;;;;28.46;30.21;99614.67;1849616;76;28118;-46
2022/07/07 03:55:29;;;;;;;1.30;0.70;;;;;;;28.42;30.24;99613.02;1853573;76;28074;-44
2022/07/07 03:58:18;;;;;;;0.70;0.60;;;;;;;28.43;30.20;99617.42;1851624;76;28070;-47
2022/07/07 04:01:06;;;;;;;1.42;0.80;;;;;;;28.43;30.17;99619.34;1850349;76;28005;-45
2022/07/07 04:03:55;;;;;;;0.60;0.60;;;;;;;28.40;30.15;99613.00;1870798;76;28091;-45
2022/07/07 04:06:44;;;;;;;0.60;0.60;;;;;;;28.40;30.08;99625.44;1855475;76;28490;-44
2022/07/07 04:09:32;;;;;;;0.85;0.70;;;;;;;28.40;30.12;99613.81;1850189;75;28068;-46
2022/07/07 04:12:21;;;;;;;0.70;0.70;;;;;;;28.40;30.05;99622.09;1850209;76;28152;-48
2022/07/07 04:15:10;;;;;;;0.85;0.85;;;;;;;28.40;30.02;99615.19;1851837;76;28117;-47
2022/07/07 04:17:58;;;;;;;0.78;0.78;;;;;;;28.40;29.92;99615.19;1839834;77;28164;-46
2022/07/07 04:20:46;;;;;;;0.70;0.70;;;;;;;28.39;29.87;99613.55;1861082;76;28223;-48
2022/07/07 04:23:35;;;;;;;0.65;0.60;;;;;;;28.37;29.81;99624.59;1860838;76;28055;-45
2022/07/07 04:26:23;;;;;;;0.93;0.80;;;;;;;28.36;29.88;99617.38;1857430;76;28001;-46
2022/07/07 04:29:12;;;;;;;1.52;0.60;;;;;;;28.36;29.84;99627.89;1871271;76;28080;-45
2022/07/07 04:32:00;;;;;;;0.90;0.80;;;;;;;28.35;29.72;99626.25;1849869;76;28055;-49
2022/07/07 04:34:48;;;;;;;1.40;0.60;;;;;;;28.35;29.65;99627.63;1849988;76;28187;-46
2022/07/07 04:37:37;;;;;;;0.60;0.60;;;;;;;28.33;29.63;99631.22;1855504;76;28156;-47
2022/07/07 04:40:26;;;;;;;0.62;0.62;;;;;;;28.34;29.58;99632.02;1860983;76;28142;-45
2022/07/07 04:43:14;;;;;;;0.70;0.70;;;;;;;28.33;29.59;99625.69;1843473;76;28557;-45
2022/07/07 04:46:02;;;;;;;0.80;0.80;;;;;;;28.31;29.70;99626.48;1851974;76;28129;-49
2022/07/07 04:48:51;;;;;;;0.70;0.70;;;;;;;28.29;29.68;99636.97;1853299;76;28113;-51
2022/07/07 04:51:39;;;;;;;0.60;0.60;;;;;;;28.31;29.58;99631.20;1863554;76;28097;-46
2022/07/07 04:54:28;;;;;;;0.60;0.60;;;;;;;28.30;29.54;99630.36;1860606;75;28086;-47
2022/07/07 04:57:16;;;;;;;1.60;0.72;;;;;;;28.30;29.52;99637.27;1857265;75;28186;-44
2022/07/07 05:00:05;;;;;;;0.80;0.70;;;;;;;28.28;29.73;99640.02;1851430;76;28029;-45
2022/07/07 05:02:53;;;;;;;1.10;0.85;;;;;;;28.29;29.48;99641.12;1849981;76;28066;-46
2022/07/07 05:05:42;;;;;;;0.77;0.77;;;;;;;28.29;29.48;99649.41;1850020;76;28096;-44
2022/07/07 05:08:31;;;;;;;1.80;0.77;;;;;;;28.28;29.25;99662.12;1871109;76;28087;-45
2022/07/07 05:11:19;;;;;;;0.80;0.80;;;;;;;28.28;29.25;99662.12;1850151;76;27988;-45
2022/07/07 05:14:08;;;;;;;1.17;0.80;;;;;;;28.26;29.45;99654.66;1845038;76;28144;-44
2022/07/07 05:16:56;;;;;;;1.57;0.87;;;;;;;28.26;29.48;99659.64;1860377;76;28113;-44
2022/07/07 05:19:44;;;;;;;0.80;0.80;;;;;;;28.24;29.51;99661.00;1871036;75;28036;-51
2022/07/07 05:22:34;;;;;;;0.80;0.80;;;;;;;28.24;29.50;99660.42;1861957;76;28360;-48
2022/07/07 05:25:22;;;;;;;1.53;0.70;;;;;;;27.99;29.36;99663.04;1860468;76;28115;-45
2022/07/07 05:28:11;;;;;;;1.40;0.70;;;;;;;27.49;29.80;99669.53;1858878;76;28105;-45
2022/07/07 05:31:02;;;;;;;0.80;0.80;;;;;;;27.18;30.22;99678.03;1854166;76;38430;-47
2022/07/07 05:33:50;;;;;;;0.95;0.60;;;;;;;26.89;30.79;99671.08;1840751;76;28094;-45
2022/07/07 05:36:38;;;;;;;1.60;0.80;;;;;;;26.83;31.16;99681.78;1860768;76;28003;-45
2022/07/07 05:39:28;;;;;;;1.30;0.73;;;;;;;26.59;31.44;99687.52;1843359;77;28467;-44
2022/07/07 05:42:16;;;;;;;0.70;0.70;;;;;;;26.48;31.64;99681.60;1852549;76;28471;-44
2022/07/07 05:45:05;;;;;;;0.82;0.82;;;;;;;26.42;31.79;99681.23;1863867;76;28619;-44
2022/07/07 05:47:53;;;;;;;0.60;0.60;;;;;;;26.36;31.98;99681.42;1839700;77;28138;-46
2022/07/07 05:50:42;;;;;;;0.57;0.57;;;;;;;26.08;32.46;99691.48;1856988;76;28000;-45
2022/07/07 05:53:30;;;;;;;3.20;0.90;;;;;;;25.94;32.77;99687.41;1850916;76;28121;-44
2022/07/07 05:56:18;;;;;;;0.80;0.80;;;;;;;25.82;33.23;99696.83;1850120;76;28187;-46
2022/07/07 05:59:07;;;;;;;0.82;0.82;;;;;;;25.99;33.09;99690.78;1850123;76;28144;-45
2022/07/07 06:01:55;;;;;;;1.35;0.70;;;;;;;26.19;32.88;99684.75;1855180;76;28087;-46
2022/07/07 06:04:43;;;;;;;1.40;0.70;;;;;;;26.39;32.72;99686.43;1860704;76;28238;-46
2022/07/07 06:07:31;;;;;;;0.70;0.70;;;;;;;26.58;32.43;99687.80;1843966;76;28265;-46
2022/07/07 06:10:20;;;;;;;0.80;0.78;;;;;;;26.73;32.25;99685.20;1851581;76;28634;-47
2022/07/07 06:13:09;;;;;;;0.70;0.70;;;;;;;26.81;32.27;99689.47;1853333;76;28040;-47
2022/07/07 06:15:58;;;;;;;2.55;0.90;;;;;;;26.92;32.20;99685.20;1849678;76;27996;-48
2022/07/07 06:18:46;;;;;;;1.85;0.85;;;;;;;27.02;32.19;99689.45;1849835;76;28115;-47
2022/07/07 06:21:35;;;;;;;1.07;0.97;;;;;;;27.11;32.41;99688.44;1852931;76;28185;-43
2022/07/07 06:24:24;;;;;;;1.35;0.68;;;;;;;27.18;32.54;99698.72;1851765;76;28003;-46
2022/07/07 06:27:13;;;;;;;2.43;1.00;;;;;;;27.21;32.76;99703.15;1842909;76;28105;-47
2022/07/07 06:30:03;;;;;;;1.50;0.88;;;;;;;27.27;32.99;99697.98;1861979;76;28168;-49
2022/07/07 06:32:51;;;;;;;1.30;0.70;;;;;;;27.32;32.93;99695.28;1853254;76;28174;-54
2022/07/07 06:35:39;;;;;;;1.77;0.80;;;;;;;27.34;33.06;99695.86;1850793;76;28006;-49
2022/07/07 06:38:28;;;;;;;1.35;0.75;;;;;;;27.39;33.17;99693.72;1843323;76;28178;-50
2022/07/07 06:41:16;;;;;;;1.47;0.72;;;;;;;27.42;33.22;99690.98;1838660;77;28197;-52
2022/07/07 06:44:09;;;;;;;2.12;0.80;;;;;;;27.48;33.29;99693.53;1854843;76;28037;-52
2022/07/07 06:47:00;;;;;;;0.90;0.70;;;;;;;27.55;33.18;99694.14;1849756;76;28157;-52
2022/07/07 06:49:50;;;;;;;0.60;0.60;;;;;;;27.58;33.12;99696.39;1849353;76;28141;-50
2022/07/07 06:52:39;;;;;;;1.80;1.00;;;;;;;27.58;33.14;99701.06;1870626;76;28080;-52
2022/07/07 06:55:27;;;;;;;0.82;0.75;;;;;;;27.65;33.11;99707.20;1854587;76;28101;-47
2022/07/07 06:58:16;;;;;;;3.80;0.90;;;;;;;27.67;33.14;99707.77;1871033;76;28090;-51
2022/07/07 07:01:04;;;;;;;4.43;0.90;;;;;;;27.72;33.15;99707.81;1845425;76;28128;-51
2022/07/07 07:03:53;;;;;;;2.37;0.80;;;;;;;27.73;32.96;99710.84;1859109;76;28018;-53
2022/07/07 07:06:43;;;;;;;2.12;0.82;;;;;;;27.79;32.87;99715.33;1853526;76;28079;-50
2022/07/07 07:09:31;;;;;;;0.90;0.90;;;;;;;27.84;32.83;99715.38;1849526;76;28080;-50
2022/07/07 07:12:19;;;;;;;3.58;1.00;;;;;;;27.79;32.77;99711.19;1849667;76;28108;-52
2022/07/07 07:15:10;;;;;;;0.70;0.70;;;;;;;27.85;32.77;99715.64;1851686;76;28188;-48
2022/07/07 07:17:59;;;;;;;0.70;0.70;;;;;;;27.85;32.74;99701.30;1838758;77;28164;-49
2022/07/07 07:20:47;;;;;;;0.93;0.83;;;;;;;27.88;32.78;99704.08;1847339;76;28008;-47
2022/07/07 07:23:37;;;;;;;0.77;0.77;;;;;;;27.87;32.78;99710.69;1868434;75;28038;-49
2022/07/07 07:26:25;;;;;;;0.95;0.70;;;;;;;27.91;32.77;99706.32;1858176;76;28125;-52
2022/07/07 07:29:14;;;;;;;0.70;0.70;;;;;;;27.91;32.78;99707.70;1852271;76;28061;-48
2022/07/07 07:32:03;;;;;;;1.50;0.90;;;;;;;27.92;32.72;99703.83;1862904;76;28190;-53
2022/07/07 07:34:52;;;;;;;1.10;0.90;;;;;;;27.95;32.68;99699.16;1841171;76;28154;-50
2022/07/07 07:37:40;;;;;;;1.57;0.70;;;;;;;28.00;32.63;99699.23;1854969;76;28162;-52
2022/07/07 07:40:29;;;;;;;0.63;0.63;;;;;;;27.99;32.61;99696.17;1850518;76;28096;-53
2022/07/07 07:43:17;;;;;;;1.15;0.90;;;;;;;28.02;32.59;99692.89;1850265;76;28066;-52
2022/07/07 07:46:05;;;;;;;1.40;0.78;;;;;;;27.98;32.63;99695.30;1871413;76;29016;-53
2022/07/07 07:48:54;;;;;;;0.90;0.90;;;;;;;28.05;32.51;99684.89;1854766;76;28020;-50
2022/07/07 07:51:42;;;;;;;0.80;0.80;;;;;;;28.06;32.50;99685.73;1850360;76;28018;-51
2022/07/07 07:54:31;;;;;;;0.70;0.62;;;;;;;28.06;32.50;99689.88;1849766;76;28078;-52
2022/07/07 07:57:20;;;;;;;0.60;0.60;;;;;;;28.07;32.44;99687.41;1852175;76;28266;-53
2022/07/07 08:00:11;;;;;;;1.35;0.72;;;;;;;28.12;32.40;99688.83;1852768;76;28009;-52
2022/07/07 08:02:59;;;;;;;0.60;0.60;;;;;;;28.13;32.38;99684.11;1850108;76;28029;-51
2022/07/07 08:05:47;;;;;;;0.60;0.60;;;;;;;28.12;32.40;99678.33;1847816;76;29217;-53
2022/07/07 08:08:35;;;;;;;0.68;0.68;;;;;;;28.12;32.42;99668.11;1857099;76;27993;-50
2022/07/07 08:11:24;;;;;;;1.50;0.85;;;;;;;28.19;32.32;99670.63;1851513;76;28158;-52
2022/07/07 08:14:12;;;;;;;0.60;0.60;;;;;;;28.16;32.33;99665.09;1849987;76;28159;-51
2022/07/07 08:17:01;;;;;;;0.60;0.60;;;;;;;28.21;32.30;99659.60;1850137;76;28140;-54
2022/07/07 08:19:50;;;;;;;0.60;0.57;;;;;;;28.14;32.41;99663.15;1854705;76;28099;-50
2022/07/07 08:22:39;;;;;;;0.70;0.70;;;;;;;28.14;32.47;99660.39;1850222;76;31596;-52
2022/07/07 08:25:27;;;;;;;2.42;1.07;;;;;;;28.18;32.43;99653.22;1878052;75;28141;-53
2022/07/07 08:28:16;;;;;;;0.60;0.60;;;;;;;28.16;32.46;99651.83;1872033;75;28053;-53
2022/07/07 08:31:06;;;;;;;1.20;0.77;;;;;;;28.22;32.39;99647.98;1867596;75;28129;-51
2022/07/07 08:33:54;;;;;;;1.32;0.60;;;;;;;28.23;32.35;99647.73;1882746;75;28049;-53
2022/07/07 08:36:42;;;;;;;1.07;0.60;;;;;;;28.23;32.38;99656.02;1861775;75;28151;-54
2022/07/07 08:39:31;;;;;;;0.60;0.60;;;;;;;28.26;32.32;99644.44;1862786;75;28088;-53
2022/07/07 08:42:20;;;;;;;0.43;0.43;;;;;;;28.28;32.31;99653.83;1866021;75;28035;-55
2022/07/07 08:45:10;;;;;;;1.02;0.70;;;;;;;28.28;32.30;99653.83;1861455;75;28070;-54
2022/07/07 08:47:58;;;;;;;0.90;0.60;;;;;;;28.28;32.32;99660.20;1858425;75;28124;-49
2022/07/07 08:50:48;;;;;;;0.77;0.77;;;;;;;28.31;32.30;99666.54;1837556;77;28162;-51
2022/07/07 08:53:38;;;;;;;2.00;0.68;;;;;;;28.30;32.28;99670.42;1832564;77;28217;-52
2022/07/07 08:56:26;;;;;;;0.77;0.77;;;;;;;28.31;32.33;99663.78;1829489;77;28260;-52
2022/07/07 08:59:15;;;;;;;0.77;0.60;;;;;;;28.33;32.32;99669.89;1828102;77;28357;-51
2022/07/07 09:02:05;;;;;;;0.50;0.50;;;;;;;28.31;32.34;99674.02;1834227;77;28336;-50
2022/07/07 09:04:53;;;;;;;0.70;0.60;;;;;;;28.34;32.32;99661.03;1847551;77;28735;-50
2022/07/07 09:07:47;;;;;;;0.53;0.53;;;;;;;28.35;32.32;99674.60;1827118;77;28358;-53
2022/07/07 09:10:42;;;;;;;0.60;0.60;;;;;;;28.39;32.25;99663.83;1826761;77;28421;-52
2022/07/07 09:13:33;;;;;;;0.50;0.50;;;;;;;28.35;32.36;99664.09;1829507;77;28341;-53
2022/07/07 09:16:23;;;;;;;0.50;0.50;;;;;;;28.33;32.35;99663.53;1816835;78;28345;-51
2022/07/07 09:19:22;;;;;;;0.60;0.60;;;;;;;28.35;32.35;99656.64;1837529;77;28800;-50
2022/07/07 09:22:13;;;;;;;0.62;0.62;;;;;;;28.34;32.37;99667.94;1837249;77;28348;-49
2022/07/07 09:25:03;;;;;;;0.70;0.70;;;;;;;28.30;32.44;99663.52;1820323;77;28399;-53
2022/07/07 09:28:06;;;;;;;0.68;0.60;;;;;;;28.33;32.47;99658.01;1855779;76;31209;-55
2022/07/07 09:30:55;;;;;;;1.30;0.60;;;;;;;28.33;32.46;99677.34;1787414;79;28285;-50
2022/07/07 09:33:44;;;;;;;0.93;0.65;;;;;;;28.33;32.47;99660.23;1850182;76;28068;-52
2022/07/07 09:39:45;;;;;;;0.90;0.67;;;;;;;28.35;32.48;99665.47;1850315;76;28182;-53
2022/07/07 09:42:36;;;;;;;0.60;0.60;;;;;;;28.36;32.48;99662.97;1788341;79;28412;-52
2022/07/07 09:45:24;;;;;;;0.63;0.60;;;;;;;28.40;32.43;99665.50;1852304;76;27997;-53
2022/07/07 09:48:14;;;;;;;0.47;0.47;;;;;;;28.40;32.44;99659.98;1784870;79;28227;-52
2022/07/07 09:51:15;;;;;;;0.50;0.50;;;;;;;28.40;32.43;99666.31;1850187;76;28224;-54
2022/07/07 09:54:10;;;;;;;0.47;0.47;;;;;;;28.42;32.40;99657.23;1785994;79;28363;-48
2022/07/07 09:56:59;;;;;;;0.60;0.60;;;;;;;28.40;32.45;99671.03;1855390;76;28501;-52
2022/07/07 09:59:47;;;;;;;0.63;0.63;;;;;;;28.38;32.46;99660.22;1784645;79;28346;-52
2022/07/07 10:02:37;;;;;;;1.50;0.62;;;;;;;28.43;32.45;99663.56;1846306;76;28066;-52
2022/07/07 10:05:28;;;;;;;0.50;0.50;;;;;;;28.44;32.42;99664.70;1793534;79;28244;-52
2022/07/07 10:08:16;;;;;;;1.75;0.75;;;;;;;28.47;32.43;99657.80;1856630;76;28200;-54
2022/07/07 10:11:07;;;;;;;1.80;0.78;;;;;;;28.47;32.39;99657.22;1783519;79;28309;-53
2022/07/07 10:13:58;;;;;;;0.50;0.50;;;;;;;28.42;32.48;99665.52;1850049;76;28135;-50
2022/07/07 10:16:49;;;;;;;0.60;0.60;;;;;;;28.44;32.46;99655.02;1785990;79;28341;-53
2022/07/07 10:19:38;;;;;;;1.30;0.55;;;;;;;28.46;32.47;99658.34;1854732;76;28130;-54
2022/07/07 10:22:29;;;;;;;0.62;0.62;;;;;;;28.43;32.50;99644.22;1784578;79;28239;-53
2022/07/07 10:25:18;;;;;;;0.60;0.60;;;;;;;28.44;32.49;99653.64;1868083;74;28315;-51
2022/07/07 10:28:07;;;;;;;0.80;0.80;;;;;;;28.46;32.49;99650.05;1859907;76;28036;-48
2022/07/07 10:30:55;;;;;;;0.60;0.60;;;;;;;28.43;32.51;99646.44;1841108;76;28638;-50
2022/07/07 10:33:47;;;;;;;0.53;0.53;;;;;;;28.47;32.46;99639.26;1860870;76;28090;-48
2022/07/07 10:36:53;;;;;;;1.55;0.62;;;;;;;28.43;32.52;99634.00;1860970;76;28020;-52
2022/07/07 10:39:47;;;;;;;0.68;0.68;;;;;;;28.49;32.44;99626.03;1860919;76;28052;-49
2022/07/07 10:43:10;;;;;;;0.80;0.80;;;;;;;28.44;32.56;99640.37;1857182;76;28041;-51
2022/07/07 10:46:02;;;;;;;0.80;0.80;;;;;;;28.42;32.53;99642.03;1858861;76;31917;-49
2022/07/07 10:48:54;;;;;;;1.20;0.60;;;;;;;28.41;32.60;99642.28;1839896;77;28082;-52
2022/07/07 10:51:58;;;;;;;0.50;0.50;;;;;;;28.40;32.61;99645.59;1860641;76;28175;-51
2022/07/07 10:54:54;;;;;;;0.60;0.60;;;;;;;28.44;32.54;99638.44;1861118;76;28117;-48
2022/07/07 10:57:45;;;;;;;0.68;0.68;;;;;;;28.42;32.61;99644.80;1860766;76;28037;-50
2022/07/07 11:00:34;;;;;;;0.60;0.60;;;;;;;28.41;32.59;99638.97;1859124;76;28063;-51
2022/07/07 11:03:25;;;;;;;0.70;0.70;;;;;;;28.43;32.60;99633.16;1853277;76;27993;-55
2022/07/07 11:06:14;;;;;;;0.70;0.70;;;;;;;28.45;32.63;99636.52;1862866;76;28129;-55
2022/07/07 11:09:04;;;;;;;0.62;0.62;;;;;;;28.48;32.58;99629.88;1861006;76;28076;-52
2022/07/07 11:11:56;;;;;;;0.80;0.80;;;;;;;28.49;32.55;99623.81;1839923;77;28144;-49
2022/07/07 11:14:46;;;;;;;0.72;0.72;;;;;;;28.43;32.63;99621.56;1853672;75;28008;-50
2022/07/07 11:17:36;;;;;;;2.27;0.70;;;;;;;28.47;32.63;99621.30;1850039;76;28091;-53
2022/07/07 11:20:29;;;;;;;1.30;0.72;;;;;;;28.47;32.63;99620.49;1847291;76;28186;-55
2022/07/07 11:23:18;;;;;;;0.60;0.60;;;;;;;28.46;32.65;99621.03;1858767;76;28099;-51
2022/07/07 11:26:07;;;;;;;0.70;0.70;;;;;;;28.47;32.64;99606.67;1853471;75;28070;-53
2022/07/07 11:28:59;;;;;;;0.62;0.62;;;;;;;28.48;32.67;99611.08;1850086;76;28115;-52
2022/07/07 11:31:47;;;;;;;0.65;0.60;;;;;;;28.50;32.62;99611.09;1850351;76;28225;-51
2022/07/07 11:34:51;;;;;;;0.80;0.80;;;;;;;28.50;32.65;99615.78;1852188;76;28146;-54
2022/07/07 11:37:43;;;;;;;0.80;0.65;;;;;;;28.52;32.62;99601.98;1856841;76;28060;-54
2022/07/07 11:40:32;;;;;;;1.60;0.95;;;;;;;28.50;32.66;99600.58;1850039;76;28012;-53
2022/07/07 11:43:25;;;;;;;0.80;0.80;;;;;;;28.51;33.33;99586.52;1850250;76;28043;-49
2022/07/07 11:46:13;;;;;;;0.70;0.70;;;;;;;28.51;33.33;99586.52;1850009;76;28129;-51
2022/07/07 11:49:03;;;;;;;0.80;0.80;;;;;;;28.51;32.66;99593.97;1854226;76;28229;-51
2022/07/07 11:51:53;;;;;;;1.50;0.60;;;;;;;28.53;32.62;99587.06;1851002;76;28562;-52
2022/07/07 11:54:47;;;;;;;0.80;0.80;;;;;;;28.51;32.64;99589.82;1850276;76;28031;-49
2022/07/07 11:57:37;;;;;;;0.70;0.60;;;;;;;28.53;32.63;99587.06;1849935;76;28093;-48
2022/07/07 12:00:32;;;;;;;0.60;0.60;;;;;;;28.55;32.62;99589.55;1853971;76;28198;-53
2022/07/07 12:03:23;;;;;;;0.68;0.68;;;;;;;28.55;32.61;99582.64;1852411;76;28017;-51
2022/07/07 12:06:12;;;;;;;0.68;0.68;;;;;;;28.52;32.65;99572.95;1849810;76;28025;-51
2022/07/07 12:09:04;;;;;;;0.70;0.70;;;;;;;28.52;32.70;99569.39;1849842;76;28125;-50
2022/07/07 12:11:54;;;;;;;0.60;0.60;;;;;;;28.51;32.70;99576.84;1853003;76;28169;-51
2022/07/07 12:14:45;;;;;;;0.90;0.90;;;;;;;28.52;32.71;99569.39;1852739;76;28040;-47
2022/07/07 12:17:42;;;;;;;0.63;0.63;;;;;;;28.55;32.71;99575.19;1863234;76;28124;-50
2022/07/07 12:20:32;;;;;;;0.72;0.72;;;;;;;28.55;32.69;99579.33;1864775;76;28023;-50
2022/07/07 12:23:21;;;;;;;0.70;0.70;;;;;;;28.54;32.73;99579.61;1851053;76;28099;-53
2022/07/07 12:26:20;;;;;;;0.80;0.80;;;;;;;28.55;32.73;99555.84;1856409;76;28079;-54
2022/07/07 12:29:10;;;;;;;0.78;0.78;;;;;;;28.50;32.77;99554.98;1839848;76;28417;-55
2022/07/07 12:31:58;;;;;;;0.90;0.90;;;;;;;28.53;32.75;99562.20;1846164;76;28120;-50
2022/07/07 12:34:49;;;;;;;0.70;0.70;;;;;;;28.52;32.80;99556.38;1850302;76;38463;-51
2022/07/07 12:37:47;;;;;;;0.70;0.70;;;;;;;28.54;32.79;99551.40;1855473;76;28115;-49
2022/07/07 12:40:41;;;;;;;0.62;0.62;;;;;;;28.54;32.74;99549.21;1852656;76;28088;-50
2022/07/07 12:43:35;;;;;;;0.60;0.60;;;;;;;28.57;32.74;99545.34;1850401;76;28113;-54
2022/07/07 12:46:27;;;;;;;0.60;0.60;;;;;;;28.56;32.75;99543.70;1849905;76;28674;-50
2022/07/07 12:49:16;;;;;;;0.62;0.60;;;;;;;28.56;32.75;99528.49;1851810;76;28082;-50
2022/07/07 12:52:13;;;;;;;0.70;0.70;;;;;;;28.56;32.77;99545.08;1853788;76;28012;-51
2022/07/07 12:55:13;;;;;;;0.68;0.68;;;;;;;28.55;32.76;99524.59;1839976;76;28115;-54
2022/07/07 12:58:20;;;;;;;0.68;0.68;;;;;;;28.58;32.76;99521.30;1861350;76;28300;-50
2022/07/07 13:01:11;;;;;;;0.60;0.60;;;;;;;28.58;32.76;99528.20;1860890;76;28121;-50
2022/07/07 13:04:01;;;;;;;0.73;0.73;;;;;;;28.55;32.82;99518.53;1840887;76;28144;-51
2022/07/07 13:06:50;;;;;;;0.80;0.80;;;;;;;28.56;32.78;99511.91;1854584;76;28110;-53
2022/07/07 13:09:39;;;;;;;0.70;0.70;;;;;;;28.56;32.79;99503.62;1851096;76;28539;-55
2022/07/07 13:12:28;;;;;;;0.62;0.62;;;;;;;28.59;32.77;99506.42;1844567;76;28077;-55
2022/07/07 13:15:17;;;;;;;0.77;0.77;;;;;;;28.59;32.76;99513.33;1861198;76;28088;-51
2022/07/07 13:18:06;;;;;;;0.60;0.60;;;;;;;28.63;32.73;99502.00;1856058;76;28162;-49
2022/07/07 13:20:57;;;;;;;0.70;0.60;;;;;;;28.65;32.68;99498.40;1850081;76;28042;-53
2022/07/07 13:23:45;;;;;;;0.70;0.70;;;;;;;28.66;32.66;99500.88;1845170;76;28107;-52